Eddyville, KY (42038)

12:39 PM CDT on August 28, 2016 (GMT -0500)
yopp road | | Change Station
Active Advisory: Special Statement

Elev 394 ft 37.01 °N, 88.16 °W | Updated 4 seconds ago

Scattered Clouds
Scattered Clouds
85.8 °F
Feels Like 96 °F
N
0.0
Wind Variable Wind from ESE
Gusts 0.0 mph

Today
High -- | Low -- °F
--% Chance of Precip.
Yesterday
High -- | Low -- °F
Precip. -- in
Pressure 30.16 in
Visibility 10.0 miles
Clouds Scattered Clouds 3000 ft
Heat Index 96 °F
Dew Point 77 °F
Humidity 74%
Rainfall 0.00 in
Snow Depth Not available.
6:20 AM 7:25 PM
Waning Crescent, 14% visible
METAR K5M9 281735Z AUTO 06003KT 10SM SCT030 32/25 A3016 RMK AO2 T03220248
Pressure 30.16 in
Visibility 10.0 miles
Clouds Scattered Clouds 3000 ft
Heat Index 96 °F
Dew Point 77 °F
Humidity 74%
Rainfall 0.00 in
Snow Depth Not available.
6:20 AM 7:25 PM
Waning Crescent, 14% visible
METAR K5M9 281735Z AUTO 06003KT 10SM SCT030 32/25 A3016 RMK AO2 T03220248

10-Day Weather Forecast

Almanac

Astronomy

Aug. 28, 2016 Rise Set
Actual Time
Civil Twilight
Nautical Twilight
Astronomical Twilight
Moon
Length of Visible Light
Length of Day
Tomorrow will be .
, % of the Moon is Illuminated

Today's Extremes

State Highs State Lows

Community

WunderPhotos

Upload Photos

1,935,635 photos uploaded!

WunderBlog® & News

Nearby

Air Quality

  Air Quality AQ Index Pollutant
Not available.

Snow Depth

Station Depth Elevation

Earthquake Activity

City Distance Mag. Time & Date
Minimum magnitude displayed is 2.5.

Coastal Water Temperatures

Place Temperature

Stations

Nearby Weather Stations

Station Location Temp. Windchill Dew Point Humidity Wind Precip. Elev Updated Type
                   

Watches & Warnings

Special Statement
Issued: 12:27 PM CDT Aug. 28, 2016 – National Weather Service

... Heat indices already up in the 100 to 105 range...

At noon CDT... many locations across the quad state region were
reporting heat indices near 100 degrees. A few locations like
Owensboro were up closer to 105. Readings in the 100 to 105 range
will become commonplace this afternoon. Those with outdoor plans
should take along plenty of non alcoholic beverage to keep
hydrated. Plan to take frequent breaks if engaging in any physical
activities.


Meffert